Terminal Aerodrome Forecast
Issued by NWS Kansas City/Pleasant Hill, MO

Home | Current Version | Previous Version | Text Only | Print | Product List | Glossary On
Versions: 1 2 3 4 5 6 7 8 9 10 11 12 13
079
FTUS43 KEAX 231729
TAFMCI
TAF
KMCI 231729Z 2318/2418 19012KT P6SM BKN200
     FM232200 18007KT P6SM BKN150
     FM241400 24009KT P6SM SCT090=

USA.gov is the U.S. government's official web portal to all federal, state and local government web resources and services.